createdAt,value
2023-05-10T00:00:02.166Z,59.45
2023-05-10T00:02:28.678Z,60.39
2023-05-10T00:04:55.150Z,60.59
2023-05-10T00:07:21.729Z,60.74
2023-05-10T00:09:48.185Z,59.94
2023-05-10T00:12:14.583Z,60.63
2023-05-10T00:14:41.051Z,61.08
2023-05-10T00:17:07.439Z,61.41
2023-05-10T00:19:33.931Z,61.64
2023-05-10T00:22:00.326Z,60.96
2023-05-10T00:24:26.933Z,61.77
2023-05-10T00:26:53.393Z,61.74
2023-05-10T00:29:20.566Z,61.67
2023-05-10T00:31:47.119Z,60.69
2023-05-10T00:34:13.658Z,61.57
2023-05-10T00:36:40.133Z,61.80
2023-05-10T00:39:07.014Z,61.92
2023-05-10T00:41:33.662Z,61.74
2023-05-10T00:44:00.217Z,62.26
2023-05-10T00:46:26.972Z,61.29
2023-05-10T00:48:53.664Z,62.43
2023-05-10T00:51:20.530Z,60.77
2023-05-10T00:53:47.305Z,61.71
2023-05-10T00:56:14.086Z,62.77
2023-05-10T00:58:40.981Z,62.12
2023-05-10T01:01:08.622Z,62.26
2023-05-10T01:03:35.661Z,62.01
2023-05-10T01:06:02.504Z,62.59
2023-05-10T01:08:29.849Z,62.62
2023-05-10T01:10:56.464Z,64.87
2023-05-10T01:13:40.470Z,64.22
2023-05-10T01:16:07.809Z,64.43
2023-05-10T01:18:37.400Z,64.06
2023-05-10T01:21:16.177Z,64.16
2023-05-10T01:24:03.594Z,65.35
2023-05-10T01:26:36.420Z,65.71
2023-05-10T01:29:25.657Z,66.00
2023-05-10T01:32:10.802Z,64.28
2023-05-10T01:34:46.175Z,65.00
2023-05-10T01:37:21.306Z,63.72
2023-05-10T01:40:07.353Z,66.20
2023-05-10T01:42:42.510Z,64.74
2023-05-10T01:45:20.844Z,64.51
2023-05-10T01:48:03.191Z,64.54
2023-05-10T01:50:33.590Z,64.40
2023-05-10T01:53:03.339Z,64.20
2023-05-10T01:55:33.120Z,65.32
2023-05-10T01:58:07.115Z,64.55
2023-05-10T02:00:35.366Z,64.85
2023-05-10T02:03:07.456Z,65.17
2023-05-10T02:05:36.342Z,64.29
2023-05-10T02:08:06.810Z,64.91
2023-05-10T02:10:36.166Z,65.16
2023-05-10T02:13:04.213Z,66.37
2023-05-10T02:15:32.052Z,66.80
2023-05-10T02:18:01.070Z,67.25
2023-05-10T02:20:28.203Z,68.50
2023-05-10T02:22:56.831Z,68.75
2023-05-10T02:25:25.004Z,68.67
2023-05-10T02:27:55.072Z,68.48
2023-05-10T02:30:23.556Z,68.99
2023-05-10T02:32:51.539Z,68.91
2023-05-10T02:35:18.511Z,68.35
2023-05-10T02:37:46.190Z,69.06
2023-05-10T02:40:13.833Z,70.11
2023-05-10T02:42:43.181Z,70.20
2023-05-10T02:45:14.235Z,70.04
2023-05-10T02:47:40.989Z,72.07
2023-05-10T02:50:08.278Z,73.71
2023-05-10T02:52:41.686Z,72.96
2023-05-10T02:55:10.838Z,74.03
2023-05-10T02:57:41.742Z,72.44
2023-05-10T03:00:09.440Z,73.29
2023-05-10T03:02:37.294Z,77.01
2023-05-10T03:05:04.399Z,75.49
2023-05-10T03:07:30.924Z,77.94
2023-05-10T03:09:57.703Z,77.31
2023-05-10T03:12:49.096Z,78.17
2023-05-10T03:15:27.731Z,79.22
2023-05-10T03:18:10.202Z,80.75
2023-05-10T03:20:42.348Z,81.80
2023-05-10T03:23:14.759Z,81.34
2023-05-10T03:25:42.110Z,80.47
2023-05-10T03:28:09.808Z,80.06
2023-05-10T03:30:37.505Z,79.87
2023-05-10T03:33:07.816Z,82.47
2023-05-10T03:35:34.895Z,81.19
2023-05-10T03:38:01.844Z,82.97
2023-05-10T03:40:33.053Z,85.00
2023-05-10T03:43:00.373Z,81.99
2023-05-10T03:45:27.434Z,81.95
2023-05-10T03:47:54.906Z,81.87
2023-05-10T03:50:21.928Z,80.85
2023-05-10T03:52:48.328Z,84.90
2023-05-10T03:55:14.794Z,82.25
2023-05-10T03:57:41.647Z,83.41
2023-05-10T04:00:09.115Z,80.70
2023-05-10T04:02:35.680Z,82.19
2023-05-10T04:05:02.719Z,84.51
2023-05-10T04:07:29.386Z,84.13
2023-05-10T04:09:55.845Z,85.55
2023-05-10T04:12:22.399Z,86.65
2023-05-10T04:14:48.817Z,86.34
2023-05-10T04:17:15.343Z,85.77
2023-05-10T04:19:41.792Z,84.75
2023-05-10T04:22:08.164Z,85.42
2023-05-10T04:24:34.739Z,87.72
2023-05-10T04:27:01.477Z,87.76
2023-05-10T04:29:28.032Z,87.87
2023-05-10T04:31:56.201Z,86.69
2023-05-10T04:34:22.666Z,85.57
2023-05-10T04:36:49.149Z,85.71
2023-05-10T04:39:15.664Z,85.06
2023-05-10T04:41:42.086Z,85.61
2023-05-10T04:44:08.502Z,87.83
2023-05-10T04:46:35.077Z,87.25
2023-05-10T04:49:02.022Z,86.44
2023-05-10T04:51:28.433Z,87.48
2023-05-10T04:54:05.328Z,89.00
2023-05-10T04:56:33.503Z,88.19
2023-05-10T04:59:00.035Z,89.17
2023-05-10T05:01:26.569Z,90.02
2023-05-10T05:03:54.068Z,89.46
2023-05-10T05:06:21.903Z,88.29
2023-05-10T05:08:50.359Z,89.66
2023-05-10T05:11:17.946Z,89.94
2023-05-10T05:13:44.897Z,88.38
2023-05-10T05:16:12.276Z,90.16
2023-05-10T05:18:39.216Z,90.47
2023-05-10T05:21:16.048Z,88.94
2023-05-10T05:23:42.617Z,88.48
2023-05-10T05:26:09.193Z,88.10
2023-05-10T05:28:38.108Z,89.34
2023-05-10T05:31:06.513Z,90.97
2023-05-10T05:33:33.002Z,89.04
2023-05-10T05:36:02.336Z,89.86
2023-05-10T05:38:28.920Z,89.24
2023-05-10T05:40:55.401Z,88.54
2023-05-10T05:43:21.773Z,88.65
2023-05-10T05:45:48.371Z,89.12
2023-05-10T05:48:14.750Z,89.27
2023-05-10T05:50:41.179Z,89.48
2023-05-10T05:53:07.582Z,88.15
2023-05-10T05:55:35.011Z,88.26
2023-05-10T05:58:01.389Z,88.56
2023-05-10T06:00:28.016Z,88.46
2023-05-10T06:02:54.616Z,88.60
2023-05-10T06:05:21.897Z,88.81
2023-05-10T06:07:49.636Z,90.42
2023-05-10T06:10:16.249Z,90.10
2023-05-10T06:12:42.792Z,90.16
2023-05-10T06:15:10.596Z,90.68
2023-05-10T06:17:37.010Z,90.88
2023-05-10T06:20:03.952Z,90.83
2023-05-10T06:22:30.585Z,90.74
2023-05-10T06:24:57.116Z,90.19
2023-05-10T06:27:24.071Z,91.16
2023-05-10T06:29:52.272Z,89.69
2023-05-10T06:32:23.026Z,89.80
2023-05-10T06:34:49.416Z,90.81
2023-05-10T06:37:15.922Z,90.90
2023-05-10T06:39:42.351Z,93.17
2023-05-10T06:42:09.045Z,90.83
2023-05-10T06:44:35.751Z,91.86
2023-05-10T06:47:02.140Z,90.42
2023-05-10T06:49:28.600Z,90.27
2023-05-10T06:51:56.580Z,91.50
2023-05-10T06:54:24.007Z,90.06
2023-05-10T06:56:50.400Z,91.16
2023-05-10T06:59:17.652Z,91.22
2023-05-10T07:01:44.216Z,90.90
2023-05-10T07:04:10.915Z,92.52
2023-05-10T07:06:37.559Z,91.78
2023-05-10T07:09:04.067Z,91.64
2023-05-10T07:11:30.443Z,91.54
2023-05-10T07:13:57.005Z,92.33
2023-05-10T07:16:23.500Z,92.43
2023-05-10T07:18:51.304Z,91.68
2023-05-10T07:21:17.762Z,92.34
2023-05-10T07:23:45.258Z,92.04
2023-05-10T07:26:12.497Z,92.66
2023-05-10T07:28:39.122Z,93.66
2023-05-10T07:31:05.772Z,93.13
2023-05-10T07:33:33.330Z,94.45
2023-05-10T07:35:59.750Z,91.85
2023-05-10T07:38:26.100Z,93.19
2023-05-10T07:40:52.551Z,92.19
2023-05-10T07:43:18.905Z,91.54
2023-05-10T07:45:45.309Z,90.73
2023-05-10T07:48:12.260Z,91.08
2023-05-10T07:50:38.733Z,91.65
2023-05-10T07:53:05.077Z,91.26
2023-05-10T07:55:31.502Z,91.94
2023-05-10T07:57:58.113Z,90.33
2023-05-10T08:00:24.461Z,90.14
2023-05-10T08:02:50.891Z,89.84
2023-05-10T08:05:17.663Z,90.81
2023-05-10T08:07:44.230Z,90.68
2023-05-10T08:10:12.254Z,89.15
2023-05-10T08:12:39.319Z,89.73
2023-05-10T08:15:06.671Z,90.45
2023-05-10T08:17:33.591Z,90.19
2023-05-10T08:19:59.990Z,90.73
2023-05-10T08:22:26.982Z,89.73
2023-05-10T08:24:53.458Z,90.75
2023-05-10T08:27:19.811Z,89.74
2023-05-10T08:29:49.991Z,87.61
2023-05-10T08:32:17.084Z,86.62
2023-05-10T08:34:43.604Z,86.69
2023-05-10T08:37:11.409Z,88.00
2023-05-10T08:39:37.879Z,86.41
2023-05-10T08:42:05.844Z,86.13
2023-05-10T08:44:35.296Z,85.72
2023-05-10T08:47:05.463Z,84.04
2023-05-10T08:49:33.536Z,82.66
2023-05-10T08:52:06.212Z,82.48
2023-05-10T08:54:34.082Z,83.54
2023-05-10T08:57:00.850Z,83.02
2023-05-10T08:59:28.356Z,82.62
2023-05-10T09:01:58.294Z,83.64
2023-05-10T09:04:25.316Z,84.07
2023-05-10T09:06:51.849Z,85.24
2023-05-10T09:09:19.257Z,85.66
2023-05-10T09:11:46.120Z,83.32
2023-05-10T09:14:13.532Z,85.60
2023-05-10T09:16:40.876Z,84.14
2023-05-10T09:19:08.337Z,84.56
2023-05-10T09:21:39.089Z,84.87
2023-05-10T09:24:07.623Z,81.46
2023-05-10T09:26:36.380Z,83.06
2023-05-10T09:29:03.881Z,83.66
2023-05-10T09:31:55.806Z,83.72
2023-05-10T09:34:30.414Z,84.67
2023-05-10T09:36:59.209Z,81.05
2023-05-10T09:39:32.887Z,79.50
2023-05-10T09:42:04.777Z,81.07
2023-05-10T09:44:32.174Z,79.79
2023-05-10T09:46:59.434Z,80.01
2023-05-10T09:49:26.149Z,80.99
2023-05-10T09:52:02.970Z,79.30
2023-05-10T09:54:29.395Z,78.47
2023-05-10T09:56:56.097Z,77.58
2023-05-10T09:59:22.506Z,77.18
2023-05-10T10:01:52.464Z,79.30
2023-05-10T10:04:21.381Z,77.25
2023-05-10T10:06:48.001Z,76.83
2023-05-10T10:09:14.964Z,77.35
2023-05-10T10:11:42.366Z,76.36
2023-05-10T10:14:08.953Z,76.15
2023-05-10T10:16:35.983Z,75.70
2023-05-10T10:19:02.683Z,77.54
2023-05-10T10:21:29.313Z,76.67
2023-05-10T10:23:56.141Z,79.19
2023-05-10T10:26:23.517Z,76.74
2023-05-10T10:29:02.531Z,74.55
2023-05-10T10:31:37.995Z,75.97
2023-05-10T10:34:07.941Z,76.79
2023-05-10T10:36:41.822Z,76.47
2023-05-10T10:39:11.640Z,74.51
2023-05-10T10:41:59.625Z,68.54
2023-05-10T10:44:34.216Z,67.11
2023-05-10T10:47:30.971Z,70.45
2023-05-10T10:50:06.520Z,67.58
2023-05-10T10:52:46.114Z,69.87
2023-05-10T10:55:15.497Z,67.45
2023-05-10T10:57:42.571Z,65.91
2023-05-10T11:00:22.649Z,67.03
2023-05-10T11:02:50.603Z,67.56
2023-05-10T11:05:40.460Z,68.08
2023-05-10T11:08:28.706Z,67.38
2023-05-10T11:11:00.958Z,67.74
2023-05-10T11:13:51.135Z,70.45
2023-05-10T11:16:25.262Z,70.76
2023-05-10T11:18:59.419Z,67.62
2023-05-10T11:21:26.327Z,67.72
2023-05-10T11:23:57.723Z,67.14
2023-05-10T11:26:27.013Z,66.54
2023-05-10T11:28:59.365Z,67.50
2023-05-10T11:31:27.987Z,66.43
2023-05-10T11:33:56.661Z,68.42
2023-05-10T11:36:26.923Z,66.42
2023-05-10T11:38:54.484Z,65.03
2023-05-10T11:41:24.733Z,65.61
2023-05-10T11:43:52.733Z,63.34
2023-05-10T11:46:23.835Z,66.56
2023-05-10T11:48:52.481Z,65.68
2023-05-10T11:51:23.945Z,64.38
2023-05-10T11:53:53.437Z,63.52
2023-05-10T11:56:21.593Z,64.14
2023-05-10T11:58:57.656Z,61.40
2023-05-10T12:01:25.889Z,61.67
2023-05-10T12:03:54.651Z,63.74
2023-05-10T12:06:22.218Z,65.16
2023-05-10T12:08:53.424Z,66.78
2023-05-10T12:11:21.844Z,67.44
2023-05-10T12:13:48.924Z,66.54
2023-05-10T12:16:17.256Z,66.82
2023-05-10T12:18:43.974Z,66.38
2023-05-10T12:21:11.765Z,66.57
2023-05-10T12:23:42.125Z,68.56
2023-05-10T12:26:11.760Z,68.96
2023-05-10T12:28:39.378Z,66.84
2023-05-10T12:31:07.080Z,65.93
2023-05-10T12:33:43.924Z,69.30
2023-05-10T12:36:12.415Z,67.59
2023-05-10T12:38:49.521Z,68.73
2023-05-10T12:41:18.287Z,72.95
2023-05-10T12:43:46.406Z,72.45
2023-05-10T12:46:15.116Z,71.33
2023-05-10T12:48:43.388Z,71.04
2023-05-10T12:51:12.635Z,73.04
2023-05-10T12:53:41.434Z,76.31
2023-05-10T12:56:08.882Z,76.18
2023-05-10T12:58:36.344Z,75.34
2023-05-10T13:01:03.248Z,78.02
2023-05-10T13:03:29.835Z,77.72
2023-05-10T13:05:56.239Z,76.19
2023-05-10T13:08:22.643Z,76.90
2023-05-10T13:10:49.394Z,77.37
2023-05-10T13:13:16.458Z,79.78
2023-05-10T13:15:42.915Z,80.61
2023-05-10T13:18:09.352Z,79.98
2023-05-10T13:20:35.975Z,81.85
2023-05-10T13:23:03.480Z,79.33
2023-05-10T13:25:30.018Z,79.42
2023-05-10T13:27:56.444Z,79.12
2023-05-10T13:30:23.066Z,78.35
2023-05-10T13:32:49.513Z,77.64
2023-05-10T13:35:16.439Z,78.16
2023-05-10T13:37:42.806Z,77.94
2023-05-10T13:40:09.452Z,78.11
2023-05-10T13:42:35.837Z,77.16
2023-05-10T13:45:05.415Z,77.95
2023-05-10T13:47:31.945Z,78.91
2023-05-10T13:49:58.706Z,79.17
2023-05-10T13:52:25.370Z,78.72
2023-05-10T13:54:55.713Z,77.41
2023-05-10T13:57:22.441Z,80.32
2023-05-10T13:59:49.060Z,79.93
2023-05-10T14:02:15.560Z,80.91
2023-05-10T14:04:42.096Z,81.06
2023-05-10T14:07:08.880Z,80.82
2023-05-10T14:09:35.280Z,78.91
2023-05-10T14:12:01.785Z,78.82
2023-05-10T14:14:30.082Z,82.41
2023-05-10T14:16:56.875Z,85.76
2023-05-10T14:19:23.486Z,85.98
2023-05-10T14:21:49.909Z,84.38
2023-05-10T14:24:16.342Z,83.75
2023-05-10T14:26:42.690Z,83.83
2023-05-10T14:29:11.504Z,84.33
2023-05-10T14:31:38.836Z,83.45
2023-05-10T14:34:05.382Z,83.74
2023-05-10T14:36:32.710Z,84.48
2023-05-10T14:38:59.164Z,84.72
2023-05-10T14:41:25.712Z,83.93
2023-05-10T14:43:52.328Z,84.75
2023-05-10T14:46:19.202Z,83.17
2023-05-10T14:48:45.735Z,83.98
2023-05-10T14:51:12.273Z,86.10
2023-05-10T14:53:38.631Z,86.76
2023-05-10T14:56:05.212Z,85.55
2023-05-10T14:58:33.953Z,84.32
2023-05-10T15:01:00.644Z,81.34
2023-05-10T15:03:27.689Z,83.77
2023-05-10T15:05:54.652Z,82.85
2023-05-10T15:08:21.116Z,81.08
2023-05-10T15:10:47.767Z,80.90
2023-05-10T15:13:14.170Z,84.44
2023-05-10T15:15:40.804Z,84.20
2023-05-10T15:18:07.444Z,86.08
2023-05-10T15:20:33.951Z,86.40
2023-05-10T15:23:00.494Z,85.55
2023-05-10T15:25:27.226Z,85.07
2023-05-10T15:27:53.654Z,86.89
2023-05-10T15:30:20.728Z,87.69
2023-05-10T15:32:48.912Z,85.63
2023-05-10T15:35:18.898Z,85.82
2023-05-10T15:37:45.629Z,85.42
2023-05-10T15:40:12.424Z,87.51
2023-05-10T15:42:38.933Z,88.12
2023-05-10T15:45:06.013Z,88.41
2023-05-10T15:47:32.628Z,89.26
2023-05-10T15:49:59.165Z,88.96
2023-05-10T15:52:25.546Z,88.62
2023-05-10T15:54:51.938Z,88.78
2023-05-10T15:57:18.367Z,90.61
2023-05-10T15:59:45.832Z,90.69
2023-05-10T16:02:12.454Z,90.92
2023-05-10T16:04:39.080Z,91.05
2023-05-10T16:07:05.709Z,91.23
2023-05-10T16:09:32.059Z,91.98
2023-05-10T16:11:58.487Z,91.47
2023-05-10T16:14:24.940Z,91.32
2023-05-10T16:16:51.663Z,90.73
2023-05-10T16:19:18.423Z,91.85
2023-05-10T16:21:45.124Z,92.00
2023-05-10T16:24:12.034Z,91.55
2023-05-10T16:26:40.972Z,91.93
2023-05-10T16:29:08.696Z,92.30
2023-05-10T16:31:35.414Z,92.00
2023-05-10T16:34:02.180Z,91.55
2023-05-10T16:36:29.628Z,91.40
2023-05-10T16:38:56.542Z,91.92
2023-05-10T16:41:23.249Z,91.55
2023-05-10T16:43:50.282Z,91.84
2023-05-10T16:46:16.793Z,92.56
2023-05-10T16:48:43.472Z,92.24
2023-05-10T16:51:10.105Z,91.57
2023-05-10T16:53:36.619Z,92.34
2023-05-10T16:56:03.607Z,92.04
2023-05-10T16:58:30.075Z,91.41
2023-05-10T17:00:56.502Z,90.64
2023-05-10T17:03:23.331Z,91.13
2023-05-10T17:05:49.896Z,91.22
2023-05-10T17:08:16.429Z,91.52
2023-05-10T17:10:43.053Z,91.69
2023-05-10T17:13:10.612Z,91.53
2023-05-10T17:15:37.962Z,92.04
2023-05-10T17:18:05.012Z,91.95
2023-05-10T17:20:31.603Z,92.28
2023-05-10T17:22:58.048Z,92.82
2023-05-10T17:25:24.467Z,92.66
2023-05-10T17:27:50.911Z,92.57
2023-05-10T17:30:22.403Z,93.90
2023-05-10T17:32:49.038Z,93.83
2023-05-10T17:35:15.953Z,94.27
2023-05-10T17:37:44.101Z,94.74
2023-05-10T17:40:11.418Z,94.42
2023-05-10T17:42:37.984Z,94.88
2023-05-10T17:45:04.862Z,95.80
2023-05-10T17:47:31.512Z,94.30
2023-05-10T17:49:58.064Z,94.32
2023-05-10T17:52:24.509Z,94.37
2023-05-10T17:54:51.139Z,95.45
2023-05-10T17:57:17.524Z,94.82
2023-05-10T17:59:44.016Z,94.70
2023-05-10T18:02:10.673Z,94.82
2023-05-10T18:04:43.000Z,94.77
2023-05-10T18:07:09.934Z,94.48
2023-05-10T18:09:36.309Z,93.76
2023-05-10T18:12:03.391Z,94.11
2023-05-10T18:14:40.074Z,94.04
2023-05-10T18:17:07.571Z,94.43
2023-05-10T18:19:34.189Z,94.73
2023-05-10T18:22:00.679Z,95.34
2023-05-10T18:24:38.421Z,94.58
2023-05-10T18:27:06.974Z,94.72
2023-05-10T18:29:33.417Z,95.00
2023-05-10T18:31:59.854Z,95.12
2023-05-10T18:34:26.809Z,94.89
2023-05-10T18:36:53.354Z,95.04
2023-05-10T18:39:19.988Z,94.96
2023-05-10T18:41:46.543Z,93.30
2023-05-10T18:44:13.047Z,93.86
2023-05-10T18:46:39.548Z,94.28
2023-05-10T18:49:08.268Z,93.54
2023-05-10T18:51:34.891Z,95.05
2023-05-10T18:54:01.390Z,95.24
2023-05-10T18:56:27.830Z,93.75
2023-05-10T18:58:54.396Z,94.32
2023-05-10T19:01:21.174Z,94.16
2023-05-10T19:03:47.667Z,94.80
2023-05-10T19:06:14.138Z,94.14
2023-05-10T19:08:40.561Z,94.35
2023-05-10T19:11:07.113Z,94.75
2023-05-10T19:13:33.970Z,94.90
2023-05-10T19:16:05.387Z,94.32
2023-05-10T19:18:33.677Z,95.04
2023-05-10T19:21:03.726Z,94.52
2023-05-10T19:23:34.397Z,95.30
2023-05-10T19:26:01.386Z,95.17
2023-05-10T19:28:28.042Z,95.22
2023-05-10T19:30:54.633Z,95.87
2023-05-10T19:33:21.343Z,95.65
2023-05-10T19:35:51.974Z,95.25
2023-05-10T19:38:25.139Z,95.98
2023-05-10T19:40:57.912Z,95.84
2023-05-10T19:43:28.824Z,96.12
2023-05-10T19:45:58.926Z,95.85
2023-05-10T19:48:25.780Z,95.28
2023-05-10T19:50:53.021Z,96.03
2023-05-10T19:53:19.520Z,96.28
2023-05-10T19:55:46.151Z,96.10
2023-05-10T19:58:12.571Z,96.39
2023-05-10T20:00:39.065Z,96.84
2023-05-10T20:03:07.014Z,96.50
2023-05-10T20:05:35.540Z,96.30
2023-05-10T20:08:01.995Z,96.38
2023-05-10T20:10:28.433Z,94.84
2023-05-10T20:12:54.953Z,95.71
2023-05-10T20:15:23.055Z,96.11
2023-05-10T20:17:52.049Z,95.49
2023-05-10T20:20:20.072Z,95.88
2023-05-10T20:22:47.929Z,95.68
2023-05-10T20:25:15.836Z,96.01
2023-05-10T20:27:42.487Z,96.16
2023-05-10T20:30:10.301Z,95.81
2023-05-10T20:32:37.833Z,96.18
2023-05-10T20:35:05.289Z,96.26
2023-05-10T20:37:31.818Z,96.38
2023-05-10T20:39:58.402Z,96.83
2023-05-10T20:42:24.947Z,97.02
2023-05-10T20:44:51.604Z,96.35
2023-05-10T20:47:18.256Z,96.64
2023-05-10T20:49:44.708Z,96.45
2023-05-10T20:52:11.550Z,96.66
2023-05-10T20:54:37.969Z,96.60
2023-05-10T20:57:04.501Z,97.25
2023-05-10T20:59:31.068Z,97.32
2023-05-10T21:01:58.125Z,97.37
2023-05-10T21:04:25.663Z,97.29
2023-05-10T21:06:53.005Z,96.99
2023-05-10T21:09:19.441Z,97.46
2023-05-10T21:11:46.012Z,97.50
2023-05-10T21:14:12.542Z,97.69
2023-05-10T21:16:39.092Z,97.13
2023-05-10T21:19:07.081Z,97.89
2023-05-10T21:21:33.825Z,97.06
2023-05-10T21:24:00.246Z,97.70
2023-05-10T21:26:26.821Z,96.96
2023-05-10T21:28:53.374Z,97.48
2023-05-10T21:31:20.134Z,97.91
2023-05-10T21:33:46.602Z,97.29
2023-05-10T21:36:13.102Z,98.19
2023-05-10T21:38:40.328Z,98.48
2023-05-10T21:41:07.733Z,98.19
2023-05-10T21:43:34.148Z,97.82
2023-05-10T21:46:00.972Z,98.08
2023-05-10T21:48:27.354Z,98.10
2023-05-10T21:50:53.715Z,97.16
2023-05-10T21:53:20.301Z,96.88
2023-05-10T21:55:46.825Z,96.08
2023-05-10T21:58:13.366Z,97.61
2023-05-10T22:00:39.978Z,96.70
2023-05-10T22:03:06.620Z,97.86
2023-05-10T22:05:33.298Z,96.32
2023-05-10T22:08:00.199Z,96.59
2023-05-10T22:10:26.661Z,96.47
2023-05-10T22:12:53.125Z,97.33
2023-05-10T22:15:19.535Z,97.34
2023-05-10T22:17:45.956Z,96.86
2023-05-10T22:20:12.720Z,97.21
2023-05-10T22:22:39.507Z,97.52
2023-05-10T22:25:07.469Z,96.75
2023-05-10T22:27:34.623Z,97.51
2023-05-10T22:30:01.513Z,97.74
2023-05-10T22:32:28.337Z,97.41
2023-05-10T22:34:54.926Z,97.41
2023-05-10T22:37:21.411Z,98.46
2023-05-10T22:39:48.819Z,97.00
2023-05-10T22:42:15.856Z,96.97
2023-05-10T22:44:43.096Z,97.33
2023-05-10T22:47:09.762Z,97.89
2023-05-10T22:49:36.440Z,97.07
2023-05-10T22:52:03.007Z,97.49
2023-05-10T22:54:29.451Z,98.62
2023-05-10T22:56:56.456Z,98.06
2023-05-10T22:59:23.237Z,98.29
2023-05-10T23:01:49.738Z,97.44
2023-05-10T23:04:16.167Z,96.45
2023-05-10T23:06:42.596Z,96.62
2023-05-10T23:09:09.719Z,97.04
2023-05-10T23:11:36.352Z,97.09
2023-05-10T23:14:05.832Z,96.95
2023-05-10T23:16:32.663Z,97.22
2023-05-10T23:18:59.259Z,96.16
2023-05-10T23:21:25.728Z,95.93
2023-05-10T23:23:52.408Z,95.72
2023-05-10T23:26:18.984Z,96.27
2023-05-10T23:28:45.468Z,96.61
2023-05-10T23:31:11.898Z,96.73
2023-05-10T23:33:38.326Z,97.01
2023-05-10T23:36:05.062Z,96.53
2023-05-10T23:38:31.556Z,95.84
2023-05-10T23:40:58.061Z,96.37
2023-05-10T23:43:25.281Z,96.55
2023-05-10T23:45:56.586Z,95.72
2023-05-10T23:48:23.495Z,96.12
2023-05-10T23:50:50.058Z,97.24
2023-05-10T23:53:16.709Z,96.71
2023-05-10T23:55:43.443Z,96.38
2023-05-10T23:58:09.908Z,96.44
